Portada
METAR-TAF:

METAR-TAF

Aeropuertos :

Aeropuerto Internacional de Bagdad

Bagdad, Iraq

latitud: 33-15-45N, longitud: 44-14-04E, altitud: 35 m

Observación

El informe se hizo hace 1 hora y 19 minutos, a las 03:00 UTC
Viento 6 kt del sureste
Temperatura 28°C
Humedad 30%
Presión 1001 hPa
Visibilidad 10 km o más
sin nubes por debajo de 1500 m y sin presencia de cumulonimbus.

METAR: ORBI 250300Z 14006KT CAVOK 28/09 Q1001

Hora: 07:19 (04:19 UTC)

Pronóstico

El informe se hizo hace 6 horas y 19 minutos, a las 22:00 UTC
Pronóstico válido del 25 a las 00 UTC al 25 a las 24 UTC
Viento 8 kt del este-sureste
Visibilidad: 8000 m
Evolucionando progresivamente
del 25 a las 15 UTC al 25 a las 18 UTC
Viento 16 kt del oeste
Visibilidad: 3000 m
Ventisca alta de polvo
Evolucionando progresivamente
del 25 a las 22 UTC al 25 a las 24 UTC
Visibilidad: 0800 m

TAF: ORBI 242200Z 2500/2524 12008KT 8000 NSC BECMG 2515/2518 27016KT 3000 BLDU BECMG 2522/2524 G35KT 0800 DS

Observaciones y pronósticos meteorológicos de más de 4000 aeropuertos (mensajes METAR y TAF).

Los puntos amarillos y rojos representan las estaciones disponibles.

Ponga el ratón en el punto deseado para ver el nombre de la estación.

Haga clic para ver las observaciones y los pronósticos meteorológicos.

Para cambiar el mapa : haga clic en los botones verdes con una cruz de color negro para hacer un zoom, en el botón verde con un guión para alejar o en las flechas verdes para mapas adyacentes.


METAR-TAF: